Time;durP1;ratioP1;P1;durP2;ratioP2;P2;SDS_P1;SDS_P2;PMS_P1;PMS_P2;Temp;Humidity;BMP_temperature;BMP_pressure;BME280_temperature;BME280_humidity;BME280_pressure;Samples;Min_cycle;Max_cycle;Signal;HPM_P1;HPM_P2
2023/01/02 00:01:03;;;;;;;12.60;6.68;;;;;;;;;;5055420;28;20045;-81
2023/01/02 00:03:30;;;;;;;10.85;5.93;;;;;;;;;;5050929;28;20124;-81
2023/01/02 00:05:56;;;;;;;14.57;6.70;;;;;;;;;;5051818;28;20044;-82
2023/01/02 00:08:23;;;;;;;10.95;6.00;;;;;;;;;;5058055;28;20053;-81
2023/01/02 00:10:51;;;;;;;10.35;6.30;;;;;;;;;;5058444;28;20087;-81
2023/01/02 00:13:17;;;;;;;12.43;6.00;;;;;;;;;;5058320;28;20332;-81
2023/01/02 00:15:44;;;;;;;10.40;5.97;;;;;;;;;;5059308;28;20045;-80
2023/01/02 00:18:10;;;;;;;12.65;6.32;;;;;;;;;;5060541;28;20064;-81
2023/01/02 00:20:37;;;;;;;12.07;6.18;;;;;;;;;;5048390;28;20045;-81
2023/01/02 00:23:04;;;;;;;10.63;5.82;;;;;;;;;;5068832;28;20113;-81
2023/01/02 00:25:33;;;;;;;11.15;6.22;;;;;;;;;;5063604;28;20424;-81
2023/01/02 00:31:23;;;;;;;11.95;6.68;;;;;;;;;;5056830;28;20052;-81
2023/01/02 00:33:50;;;;;;;11.15;6.30;;;;;;;;;;5059579;28;20099;-82
2023/01/02 00:36:19;;;;;;;12.23;7.00;;;;;;;;;;5059657;28;20124;-81
2023/01/02 00:38:49;;;;;;;12.05;6.43;;;;;;;;;;5059558;28;20075;-81
2023/01/02 00:41:15;;;;;;;9.48;5.82;;;;;;;;;;5059404;28;20045;-81
2023/01/02 00:43:42;;;;;;;10.90;6.20;;;;;;;;;;5053857;28;20064;-81
2023/01/02 00:46:09;;;;;;;10.50;5.32;;;;;;;;;;5059795;28;20044;-82
2023/01/02 00:51:59;;;;;;;13.60;7.32;;;;;;;;;;5068319;28;20504;-81
2023/01/02 00:54:41;;;;;;;13.18;7.25;;;;;;;;;;5073796;28;20041;-81
2023/01/02 01:00:30;;;;;;;11.95;6.47;;;;;;;;;;5058122;28;20459;-82
2023/01/02 01:02:57;;;;;;;12.88;6.28;;;;;;;;;;5058846;28;20044;-81
2023/01/02 01:05:24;;;;;;;13.95;6.95;;;;;;;;;;5046296;28;20052;-81
2023/01/02 01:07:53;;;;;;;9.90;6.13;;;;;;;;;;5058384;28;20572;-81
2023/01/02 01:10:21;;;;;;;11.90;6.13;;;;;;;;;;5058487;28;20089;-81
2023/01/02 01:12:47;;;;;;;13.25;6.88;;;;;;;;;;5068005;28;20106;-80
2023/01/02 01:15:14;;;;;;;16.00;6.95;;;;;;;;;;5073268;28;20104;-81
2023/01/02 01:17:41;;;;;;;12.65;6.28;;;;;;;;;;5073036;28;20109;-80
2023/01/02 01:20:09;;;;;;;12.00;5.65;;;;;;;;;;5073573;28;20540;-81
2023/01/02 01:22:35;;;;;;;10.30;5.55;;;;;;;;;;5072630;28;20045;-80
2023/01/02 01:25:04;;;;;;;13.52;6.75;;;;;;;;;;5073928;28;20055;-80
2023/01/02 01:27:30;;;;;;;13.15;6.82;;;;;;;;;;5073687;28;20084;-80
2023/01/02 01:29:57;;;;;;;13.48;6.93;;;;;;;;;;5073241;28;20045;-80
2023/01/02 01:32:23;;;;;;;12.02;6.45;;;;;;;;;;5065067;28;20049;-81
2023/01/02 01:34:53;;;;;;;11.23;5.70;;;;;;;;;;5073895;28;20104;-80
2023/01/02 01:37:19;;;;;;;11.75;6.13;;;;;;;;;;5073204;28;20143;-81
2023/01/02 01:39:46;;;;;;;11.00;6.35;;;;;;;;;;5073677;28;20083;-81
2023/01/02 01:42:14;;;;;;;14.00;7.18;;;;;;;;;;5072657;28;20073;-81
2023/01/02 01:44:46;;;;;;;15.70;7.47;;;;;;;;;;5072715;28;20039;-80
2023/01/02 01:47:24;;;;;;;12.27;6.72;;;;;;;;;;5065546;28;20040;-81
2023/01/02 01:49:58;;;;;;;12.82;6.95;;;;;;;;;;5072224;28;20095;-81
2023/01/02 01:52:28;;;;;;;12.35;5.90;;;;;;;;;;5058777;28;20403;-82
2023/01/02 01:55:01;;;;;;;13.27;6.30;;;;;;;;;;5062712;28;20045;-82
2023/01/02 01:57:34;;;;;;;10.65;5.88;;;;;;;;;;5058719;28;20647;-82
2023/01/02 02:00:02;;;;;;;12.55;6.07;;;;;;;;;;5058601;28;20076;-81
2023/01/02 02:02:31;;;;;;;9.70;5.47;;;;;;;;;;5057538;28;20139;-82
2023/01/02 02:07:26;;;;;;;11.63;5.93;;;;;;;;;;5069991;28;20052;-56
2023/01/02 02:09:56;;;;;;;12.73;6.07;;;;;;;;;;5072629;28;20493;-52
2023/01/02 02:12:23;;;;;;;11.60;6.70;;;;;;;;;;5072859;28;20481;-52
2023/01/02 02:14:52;;;;;;;13.02;8.32;;;;;;;;;;5072787;28;20105;-51
2023/01/02 02:17:29;;;;;;;13.35;6.68;;;;;;;;;;5072647;28;20106;-55
2023/01/02 02:20:23;;;;;;;10.52;6.38;;;;;;;;;;5072558;28;20049;-55
2023/01/02 02:23:17;;;;;;;12.80;6.90;;;;;;;;;;5072406;28;20052;-53
2023/01/02 02:26:07;;;;;;;11.60;6.50;;;;;;;;;;5072532;28;20048;-55
2023/01/02 02:29:14;;;;;;;9.55;5.80;;;;;;;;;;5068713;28;20094;-55
2023/01/02 02:31:51;;;;;;;12.60;5.95;;;;;;;;;;5072283;28;20052;-54
2023/01/02 02:34:23;;;;;;;11.73;6.07;;;;;;;;;;5072249;28;20084;-52
2023/01/02 02:36:57;;;;;;;12.27;6.63;;;;;;;;;;5072242;28;20049;-53
2023/01/02 02:39:37;;;;;;;10.48;5.28;;;;;;;;;;5072198;28;20052;-54
2023/01/02 02:42:14;;;;;;;12.77;6.33;;;;;;;;;;5072065;28;20048;-51
2023/01/02 02:44:53;;;;;;;8.65;5.40;;;;;;;;;;5072159;28;20485;-52
2023/01/02 02:47:30;;;;;;;11.13;5.38;;;;;;;;;;5072081;28;20058;-54
2023/01/02 02:50:03;;;;;;;11.15;5.85;;;;;;;;;;5072035;28;20301;-55
2023/01/02 02:52:33;;;;;;;12.77;6.43;;;;;;;;;;5072157;28;20053;-55
2023/01/02 02:55:05;;;;;;;12.45;6.28;;;;;;;;;;5072162;28;20103;-54
2023/01/02 02:57:33;;;;;;;11.25;5.70;;;;;;;;;;5072141;28;20098;-55
2023/01/02 02:59:59;;;;;;;9.32;5.82;;;;;;;;;;5072079;28;20110;-51
2023/01/02 03:02:27;;;;;;;10.82;5.70;;;;;;;;;;5071754;28;20148;-50
2023/01/02 03:04:59;;;;;;;12.13;5.90;;;;;;;;;;5072004;28;20045;-55
2023/01/02 03:07:32;;;;;;;11.48;6.05;;;;;;;;;;5071813;28;20493;-53
2023/01/02 03:10:09;;;;;;;9.88;5.80;;;;;;;;;;5071984;28;20059;-50
2023/01/02 03:12:47;;;;;;;10.18;5.53;;;;;;;;;;5071870;28;20102;-54
2023/01/02 03:15:20;;;;;;;10.38;5.63;;;;;;;;;;5072032;28;20090;-52
2023/01/02 03:18:00;;;;;;;11.77;5.97;;;;;;;;;;5072004;28;20057;-51
2023/01/02 03:20:33;;;;;;;10.32;5.40;;;;;;;;;;5071570;28;20101;-53
2023/01/02 03:23:03;;;;;;;11.68;5.00;;;;;;;;;;5071803;28;20048;-55
2023/01/02 03:25:31;;;;;;;11.97;4.90;;;;;;;;;;5072079;28;20045;-54
2023/01/02 03:28:00;;;;;;;11.30;5.25;;;;;;;;;;5071969;28;20045;-55
2023/01/02 03:30:30;;;;;;;9.93;4.88;;;;;;;;;;5071618;28;20052;-51
2023/01/02 03:33:02;;;;;;;10.68;4.75;;;;;;;;;;5071731;28;20075;-54
2023/01/02 03:35:34;;;;;;;7.85;4.55;;;;;;;;;;5071585;28;20084;-55
2023/01/02 03:38:03;;;;;;;9.38;4.82;;;;;;;;;;5072262;28;20076;-56
2023/01/02 03:40:35;;;;;;;10.35;4.50;;;;;;;;;;5072399;28;20127;-53
2023/01/02 03:43:09;;;;;;;8.68;4.63;;;;;;;;;;5075715;28;20053;-56
2023/01/02 03:45:40;;;;;;;8.63;4.30;;;;;;;;;;5075670;28;20079;-56
2023/01/02 03:48:13;;;;;;;12.38;5.47;;;;;;;;;;5075794;28;20071;-53
2023/01/02 03:50:45;;;;;;;8.52;4.88;;;;;;;;;;5075674;28;20048;-55
2023/01/02 03:53:12;;;;;;;10.95;5.68;;;;;;;;;;5075655;28;20048;-56
2023/01/02 03:55:43;;;;;;;8.68;4.78;;;;;;;;;;5075623;28;20102;-56
2023/01/02 03:58:17;;;;;;;10.32;5.00;;;;;;;;;;5075428;28;20106;-55
2023/01/02 04:00:49;;;;;;;8.38;4.43;;;;;;;;;;5075396;28;20057;-55
2023/01/02 04:03:21;;;;;;;9.25;4.72;;;;;;;;;;5075270;28;20546;-56
2023/01/02 04:05:51;;;;;;;9.18;5.22;;;;;;;;;;5075355;28;20048;-56
2023/01/02 04:08:22;;;;;;;9.97;5.13;;;;;;;;;;5075721;28;20049;-56
2023/01/02 04:10:51;;;;;;;10.43;4.63;;;;;;;;;;5075075;28;20052;-53
2023/01/02 04:13:23;;;;;;;7.93;4.18;;;;;;;;;;5075062;28;20052;-56
2023/01/02 04:15:52;;;;;;;10.07;4.50;;;;;;;;;;5075235;28;20452;-51
2023/01/02 04:18:25;;;;;;;7.93;4.25;;;;;;;;;;5074960;28;20052;-53
2023/01/02 04:20:55;;;;;;;8.43;4.88;;;;;;;;;;5074726;28;20086;-54
2023/01/02 04:23:26;;;;;;;8.48;4.53;;;;;;;;;;5075443;28;20189;-56
2023/01/02 04:25:59;;;;;;;9.55;3.80;;;;;;;;;;5075069;28;20421;-56
2023/01/02 04:28:29;;;;;;;11.10;4.72;;;;;;;;;;5074862;28;20048;-54
2023/01/02 04:31:02;;;;;;;10.80;5.00;;;;;;;;;;5074582;28;20106;-53
2023/01/02 04:33:31;;;;;;;9.18;5.25;;;;;;;;;;5075150;28;20445;-55
2023/01/02 04:35:58;;;;;;;9.75;4.55;;;;;;;;;;5074634;28;20485;-52
2023/01/02 04:38:25;;;;;;;8.43;4.22;;;;;;;;;;5074388;28;20105;-55
2023/01/02 04:40:52;;;;;;;7.88;3.85;;;;;;;;;;5074601;28;20464;-56
2023/01/02 04:43:21;;;;;;;8.55;4.32;;;;;;;;;;5074462;28;20084;-56
2023/01/02 04:45:48;;;;;;;8.95;4.82;;;;;;;;;;5074604;28;20084;-54
2023/01/02 04:48:15;;;;;;;7.88;3.80;;;;;;;;;;5074282;28;20135;-55
2023/01/02 04:50:44;;;;;;;9.80;4.70;;;;;;;;;;5074278;28;20503;-56
2023/01/02 04:53:11;;;;;;;8.32;4.35;;;;;;;;;;5073938;28;20090;-52
2023/01/02 04:55:38;;;;;;;6.95;4.50;;;;;;;;;;5074634;28;20469;-55
2023/01/02 04:58:05;;;;;;;7.95;3.67;;;;;;;;;;5074216;28;20098;-54
2023/01/02 05:00:32;;;;;;;8.98;3.90;;;;;;;;;;5074317;28;20098;-55
2023/01/02 05:02:58;;;;;;;8.32;4.65;;;;;;;;;;5074020;28;20100;-56
2023/01/02 05:05:25;;;;;;;10.95;4.10;;;;;;;;;;5073906;28;20110;-55
2023/01/02 05:07:53;;;;;;;9.13;4.43;;;;;;;;;;5074247;28;20052;-53
2023/01/02 05:10:20;;;;;;;9.63;4.35;;;;;;;;;;5073883;28;20067;-55
2023/01/02 05:12:47;;;;;;;10.43;5.35;;;;;;;;;;5074026;28;20060;-56
2023/01/02 05:15:14;;;;;;;13.60;5.63;;;;;;;;;;5074181;28;20519;-55
2023/01/02 05:17:42;;;;;;;10.05;5.15;;;;;;;;;;5073813;28;20409;-54
2023/01/02 05:20:10;;;;;;;10.90;5.00;;;;;;;;;;5074004;28;20570;-53
2023/01/02 05:25:23;;;;;;;13.27;6.75;;;;;;;;;;5073880;28;20055;-55
2023/01/02 05:27:52;;;;;;;13.25;6.90;;;;;;;;;;5073691;28;20044;-52
2023/01/02 05:30:18;;;;;;;16.55;7.38;;;;;;;;;;5073588;28;20072;-54
2023/01/02 05:32:45;;;;;;;15.55;8.68;;;;;;;;;;5073513;28;20064;-52
2023/01/02 05:35:12;;;;;;;16.05;8.50;;;;;;;;;;5073550;28;20504;-56
2023/01/02 05:37:39;;;;;;;9.85;5.28;;;;;;;;;;5073447;28;20109;-52
2023/01/02 05:40:06;;;;;;;8.48;4.45;;;;;;;;;;5073464;28;20413;-55
2023/01/02 05:42:34;;;;;;;11.57;5.60;;;;;;;;;;5073423;28;20049;-53
2023/01/02 05:45:01;;;;;;;12.32;5.85;;;;;;;;;;5073401;28;20052;-52
2023/01/02 05:47:28;;;;;;;11.85;5.97;;;;;;;;;;5073293;28;20052;-55
2023/01/02 05:49:54;;;;;;;9.68;5.30;;;;;;;;;;5073242;28;20053;-56
2023/01/02 05:52:21;;;;;;;9.05;5.18;;;;;;;;;;5073176;28;20064;-55
2023/01/02 05:54:48;;;;;;;7.78;4.70;;;;;;;;;;5073175;28;20125;-56
2023/01/02 05:57:15;;;;;;;13.55;5.97;;;;;;;;;;5073061;28;20092;-54
2023/01/02 05:59:43;;;;;;;10.77;4.57;;;;;;;;;;5073108;28;20084;-54
2023/01/02 06:02:10;;;;;;;13.65;5.18;;;;;;;;;;5072820;28;20084;-56
2023/01/02 06:04:37;;;;;;;10.82;4.30;;;;;;;;;;5072216;28;20048;-56
2023/01/02 06:07:03;;;;;;;9.13;4.72;;;;;;;;;;5073235;28;20044;-56
2023/01/02 06:09:30;;;;;;;10.55;4.65;;;;;;;;;;5072965;28;20137;-56
2023/01/02 06:11:57;;;;;;;11.75;5.88;;;;;;;;;;5072658;28;20493;-52
2023/01/02 06:14:27;;;;;;;13.38;6.38;;;;;;;;;;5072582;28;20048;-55
2023/01/02 06:16:55;;;;;;;15.82;7.00;;;;;;;;;;5072854;28;20103;-56
2023/01/02 06:19:21;;;;;;;15.07;7.75;;;;;;;;;;5072475;28;20471;-53
2023/01/02 06:21:48;;;;;;;13.68;6.60;;;;;;;;;;5072612;28;20052;-53
2023/01/02 06:24:15;;;;;;;14.52;6.85;;;;;;;;;;5072860;28;20110;-56
2023/01/02 06:26:42;;;;;;;13.88;6.07;;;;;;;;;;5072665;28;20107;-56
2023/01/02 06:29:09;;;;;;;14.60;6.80;;;;;;;;;;5072488;28;20048;-53
2023/01/02 06:31:36;;;;;;;13.50;7.47;;;;;;;;;;5072461;28;20425;-56
2023/01/02 06:34:04;;;;;;;15.18;6.60;;;;;;;;;;5072411;28;20555;-56
2023/01/02 06:36:32;;;;;;;13.23;6.63;;;;;;;;;;5072263;28;20053;-53
2023/01/02 06:38:59;;;;;;;15.63;7.53;;;;;;;;;;5072192;28;20390;-53
2023/01/02 06:41:26;;;;;;;21.45;7.70;;;;;;;;;;5072231;28;20521;-54
2023/01/02 06:43:53;;;;;;;17.35;7.78;;;;;;;;;;5072206;28;20104;-55
2023/01/02 06:46:22;;;;;;;15.07;7.15;;;;;;;;;;5072543;28;20433;-56
2023/01/02 06:48:49;;;;;;;15.90;6.80;;;;;;;;;;5072282;28;20135;-53
2023/01/02 06:51:18;;;;;;;15.90;6.90;;;;;;;;;;5072178;28;20092;-56
2023/01/02 06:53:46;;;;;;;14.68;7.57;;;;;;;;;;5072179;28;20558;-56
2023/01/02 06:56:15;;;;;;;15.05;7.38;;;;;;;;;;5072253;28;20094;-56
2023/01/02 06:58:42;;;;;;;18.42;7.63;;;;;;;;;;5072030;28;20049;-53
2023/01/02 07:01:10;;;;;;;19.83;8.15;;;;;;;;;;5072257;28;20049;-57
2023/01/02 07:03:37;;;;;;;23.98;9.23;;;;;;;;;;5071911;28;20455;-54
2023/01/02 07:06:06;;;;;;;31.63;9.43;;;;;;;;;;5071841;28;20048;-56
2023/01/02 07:08:35;;;;;;;23.83;9.45;;;;;;;;;;5071883;28;20045;-57
2023/01/02 07:11:10;;;;;;;27.55;8.35;;;;;;;;;;5071782;28;20095;-56
2023/01/02 07:13:37;;;;;;;17.85;7.25;;;;;;;;;;5072156;28;20049;-57
2023/01/02 07:16:05;;;;;;;16.90;7.30;;;;;;;;;;5071623;28;20052;-56
2023/01/02 07:18:32;;;;;;;18.23;8.07;;;;;;;;;;5071738;28;20060;-54
2023/01/02 07:20:59;;;;;;;16.00;8.25;;;;;;;;;;5071798;28;20102;-56
2023/01/02 07:23:26;;;;;;;20.30;8.13;;;;;;;;;;5071733;28;20052;-56
2023/01/02 07:25:56;;;;;;;16.73;8.40;;;;;;;;;;5071779;28;20084;-54
2023/01/02 07:28:24;;;;;;;20.77;8.15;;;;;;;;;;5072017;28;20552;-55
2023/01/02 07:30:51;;;;;;;17.05;7.13;;;;;;;;;;5071694;28;20463;-57
2023/01/02 07:33:17;;;;;;;14.02;6.75;;;;;;;;;;5071790;28;20052;-55
2023/01/02 07:35:44;;;;;;;18.08;7.88;;;;;;;;;;5071680;28;20052;-57
2023/01/02 07:38:11;;;;;;;18.13;8.65;;;;;;;;;;5071626;28;20084;-52
2023/01/02 07:40:38;;;;;;;15.85;8.50;;;;;;;;;;5071650;28;20048;-57
2023/01/02 07:43:06;;;;;;;16.80;7.70;;;;;;;;;;5071578;28;20469;-56
2023/01/02 07:45:33;;;;;;;16.70;8.20;;;;;;;;;;5071492;28;20547;-56
2023/01/02 07:48:00;;;;;;;16.08;7.75;;;;;;;;;;5072035;28;20055;-55
2023/01/02 07:50:27;;;;;;;15.93;8.13;;;;;;;;;;5071390;28;20547;-57
2023/01/02 07:52:54;;;;;;;18.58;8.10;;;;;;;;;;5071585;28;20090;-53
2023/01/02 07:55:21;;;;;;;16.52;7.35;;;;;;;;;;5071289;28;20055;-54
2023/01/02 07:57:48;;;;;;;14.35;6.82;;;;;;;;;;5071613;28;20087;-54
2023/01/02 08:00:17;;;;;;;16.38;8.23;;;;;;;;;;5071247;28;20095;-55
2023/01/02 08:02:43;;;;;;;16.75;7.65;;;;;;;;;;5071343;28;20087;-56
2023/01/02 08:05:10;;;;;;;18.67;8.38;;;;;;;;;;5071222;28;20113;-54
2023/01/02 08:07:37;;;;;;;17.90;8.18;;;;;;;;;;5071467;28;20048;-51
2023/01/02 08:10:05;;;;;;;14.40;8.10;;;;;;;;;;5070761;28;20044;-51
2023/01/02 08:12:32;;;;;;;17.20;8.07;;;;;;;;;;5070109;28;20056;-51
2023/01/02 08:14:58;;;;;;;16.00;8.07;;;;;;;;;;5071068;28;20066;-53
2023/01/02 08:17:28;;;;;;;15.23;7.35;;;;;;;;;;5070905;28;20484;-50
2023/01/02 08:19:55;;;;;;;15.30;7.28;;;;;;;;;;5070940;28;20529;-51
2023/01/02 08:22:22;;;;;;;16.73;7.93;;;;;;;;;;5071276;28;20102;-51
2023/01/02 08:24:49;;;;;;;14.63;7.63;;;;;;;;;;5070286;28;20177;-50
2023/01/02 08:27:16;;;;;;;15.05;7.68;;;;;;;;;;5072939;28;20048;-50
2023/01/02 08:29:43;;;;;;;13.88;7.63;;;;;;;;;;5073952;28;20052;-52
2023/01/02 08:32:09;;;;;;;17.00;8.48;;;;;;;;;;5074734;28;20052;-50
2023/01/02 08:34:37;;;;;;;22.08;9.13;;;;;;;;;;5073773;28;20094;-50
2023/01/02 08:37:04;;;;;;;21.20;9.40;;;;;;;;;;5073972;28;20053;-50
2023/01/02 08:39:31;;;;;;;21.52;8.88;;;;;;;;;;5074124;28;20048;-50
2023/01/02 08:41:58;;;;;;;25.30;9.60;;;;;;;;;;5074324;28;20094;-52
2023/01/02 08:44:25;;;;;;;31.80;9.90;;;;;;;;;;5073880;28;20049;-49
2023/01/02 08:46:51;;;;;;;26.58;10.85;;;;;;;;;;5074402;28;20171;-49
2023/01/02 08:49:18;;;;;;;28.63;10.10;;;;;;;;;;5074187;28;20078;-52
2023/01/02 08:51:47;;;;;;;25.38;10.35;;;;;;;;;;5075697;28;20507;-50
2023/01/02 08:54:14;;;;;;;22.55;9.93;;;;;;;;;;5086909;28;20554;-53
2023/01/02 08:56:41;;;;;;;23.15;10.23;;;;;;;;;;5074712;28;20048;-51
2023/01/02 08:59:10;;;;;;;21.92;10.65;;;;;;;;;;5073145;28;20064;-52
2023/01/02 09:01:38;;;;;;;24.17;10.10;;;;;;;;;;5073626;28;20049;-49
2023/01/02 09:04:06;;;;;;;24.80;10.27;;;;;;;;;;5075362;28;20044;-49
2023/01/02 09:06:34;;;;;;;21.58;10.98;;;;;;;;;;5075558;28;20052;-51
2023/01/02 09:09:03;;;;;;;24.02;11.10;;;;;;;;;;5053979;28;20486;-50
2023/01/02 09:11:32;;;;;;;21.67;9.65;;;;;;;;;;5070147;28;20076;-49
2023/01/02 09:14:00;;;;;;;19.77;10.02;;;;;;;;;;5073259;28;21328;-50
2023/01/02 09:16:27;;;;;;;18.42;9.70;;;;;;;;;;5073364;28;20448;-52
2023/01/02 09:18:55;;;;;;;22.60;10.00;;;;;;;;;;5073772;28;20383;-54
2023/01/02 09:21:22;;;;;;;23.60;11.52;;;;;;;;;;5073549;28;20532;-51
2023/01/02 09:23:49;;;;;;;22.27;11.00;;;;;;;;;;5073668;28;20397;-50
2023/01/02 09:26:17;;;;;;;29.27;12.95;;;;;;;;;;5073883;28;20490;-50
2023/01/02 09:28:45;;;;;;;28.15;12.00;;;;;;;;;;5073763;28;20072;-50
2023/01/02 09:31:13;;;;;;;20.88;10.90;;;;;;;;;;5073514;28;20048;-52
2023/01/02 09:33:40;;;;;;;20.45;11.95;;;;;;;;;;5067130;28;20049;-49
2023/01/02 09:36:09;;;;;;;26.38;13.55;;;;;;;;;;5073450;28;20463;-50
2023/01/02 09:38:36;;;;;;;26.40;12.20;;;;;;;;;;5073222;28;20369;-52
2023/01/02 09:41:09;;;;;;;20.60;11.77;;;;;;;;;;5073322;28;20106;-50
2023/01/02 09:43:41;;;;;;;32.13;12.50;;;;;;;;;;5072554;28;20144;-50
2023/01/02 09:46:16;;;;;;;24.20;11.93;;;;;;;;;;5073104;28;20051;-51
2023/01/02 09:48:43;;;;;;;24.42;12.45;;;;;;;;;;5072813;28;20155;-49
2023/01/02 09:51:11;;;;;;;26.60;11.93;;;;;;;;;;5072829;28;20066;-49
2023/01/02 09:53:38;;;;;;;26.67;11.00;;;;;;;;;;5072720;28;20084;-51
2023/01/02 09:56:13;;;;;;;21.30;10.60;;;;;;;;;;5073043;28;20413;-49
2023/01/02 09:58:47;;;;;;;32.53;10.60;;;;;;;;;;5072955;28;20094;-52
2023/01/02 10:01:22;;;;;;;22.70;10.38;;;;;;;;;;5073213;28;20382;-50
2023/01/02 10:03:58;;;;;;;19.70;10.25;;;;;;;;;;5072637;28;20044;-50
2023/01/02 10:06:30;;;;;;;19.90;8.90;;;;;;;;;;5069311;28;20051;-50
2023/01/02 10:09:07;;;;;;;63.45;23.98;;;;;;;;;;5072569;28;20126;-51
2023/01/02 10:11:53;;;;;;;27.60;12.48;;;;;;;;;;5072282;28;20090;-52
2023/01/02 10:14:29;;;;;;;26.63;12.32;;;;;;;;;;5072315;28;20094;-51
2023/01/02 10:16:59;;;;;;;26.02;11.32;;;;;;;;;;5056362;28;20105;-50
2023/01/02 10:19:37;;;;;;;17.52;10.00;;;;;;;;;;5072361;28;20048;-50
2023/01/02 10:22:07;;;;;;;19.40;9.57;;;;;;;;;;5072268;28;20053;-52
2023/01/02 10:24:40;;;;;;;21.35;9.75;;;;;;;;;;5071656;28;20152;-50
2023/01/02 10:27:13;;;;;;;19.67;9.77;;;;;;;;;;5072128;28;20045;-52
2023/01/02 10:29:45;;;;;;;22.73;10.00;;;;;;;;;;5071868;28;20419;-52
2023/01/02 10:32:16;;;;;;;16.75;7.57;;;;;;;;;;5072499;28;20084;-49
2023/01/02 10:34:50;;;;;;;17.48;9.68;;;;;;;;;;5071517;28;20053;-51
2023/01/02 10:37:18;;;;;;;18.33;8.63;;;;;;;;;;5072209;28;20076;-49
2023/01/02 10:39:46;;;;;;;18.42;9.07;;;;;;;;;;5071522;28;20060;-53
2023/01/02 10:42:15;;;;;;;14.30;6.30;;;;;;;;;;5069736;28;20378;-49
2023/01/02 10:44:45;;;;;;;10.57;5.78;;;;;;;;;;5069154;28;20137;-53
2023/01/02 10:47:18;;;;;;;13.10;6.20;;;;;;;;;;5070720;28;20084;-51
2023/01/02 10:49:45;;;;;;;15.80;5.47;;;;;;;;;;5069206;28;20692;-51
2023/01/02 10:52:18;;;;;;;16.80;7.13;;;;;;;;;;5070397;28;20048;-51
2023/01/02 10:54:50;;;;;;;13.07;5.72;;;;;;;;;;5070595;28;20426;-65
2023/01/02 10:57:23;;;;;;;15.07;7.35;;;;;;;;;;5072380;28;20563;-66
2023/01/02 10:59:55;;;;;;;15.10;5.93;;;;;;;;;;5070842;28;20469;-54
2023/01/02 11:02:27;;;;;;;9.55;4.13;;;;;;;;;;5070135;28;20578;-50
2023/01/02 11:04:54;;;;;;;8.85;3.78;;;;;;;;;;5069446;28;20456;-50
2023/01/02 11:07:24;;;;;;;9.75;4.15;;;;;;;;;;5069484;28;20145;-50
2023/01/02 11:09:54;;;;;;;;;;;;;;;;;;5070363;28;20087;-52
2023/01/02 11:12:20;;;;;;;11.93;5.53;;;;;;;;;;5069799;28;19973;-51
2023/01/02 11:14:47;;;;;;;12.27;4.22;;;;;;;;;;5069976;28;20430;-50
2023/01/02 11:17:18;;;;;;;10.95;4.32;;;;;;;;;;5070171;28;20072;-53
2023/01/02 11:19:47;;;;;;;9.52;3.75;;;;;;;;;;5069609;28;20095;-50
2023/01/02 11:22:16;;;;;;;11.85;5.20;;;;;;;;;;5069542;28;20040;-51
2023/01/02 11:24:54;;;;;;;12.75;4.90;;;;;;;;;;5069608;28;20048;-49
2023/01/02 11:27:22;;;;;;;21.48;4.45;;;;;;;;;;5069100;28;20061;-52
2023/01/02 11:29:50;;;;;;;8.90;4.38;;;;;;;;;;5069782;28;20056;-49
2023/01/02 11:32:28;;;;;;;14.90;4.82;;;;;;;;;;5049710;28;20056;-50
2023/01/02 11:34:58;;;;;;;13.93;6.28;;;;;;;;;;5061748;28;20121;-58
2023/01/02 11:37:25;;;;;;;12.38;6.28;;;;;;;;;;5069475;28;20056;-62
2023/01/02 11:40:02;;;;;;;11.88;5.32;;;;;;;;;;5070017;28;20127;-50
2023/01/02 11:45:20;;;;;;;13.77;5.80;;;;;;;;;;5069610;28;20051;-62
2023/01/02 11:47:50;;;;;;;17.65;7.22;;;;;;;;;;5069795;28;20053;-61
2023/01/02 11:50:22;;;;;;;17.55;7.90;;;;;;;;;;5067940;28;20103;-61
2023/01/02 11:52:55;;;;;;;22.65;8.63;;;;;;;;;;5065644;28;20539;-57
2023/01/02 11:55:33;;;;;;;18.90;10.15;;;;;;;;;;5069619;28;20067;-61
2023/01/02 11:58:05;;;;;;;14.73;6.85;;;;;;;;;;5072373;28;20051;-49
2023/01/02 12:00:36;;;;;;;15.13;6.55;;;;;;;;;;5075029;28;20044;-49
2023/01/02 12:03:06;;;;;;;;;;;;;;;;;;5072512;28;21372;-48
2023/01/02 12:05:40;;;;;;;11.00;4.57;;;;;;;;;;5083292;28;19920;-52
2023/01/02 12:08:19;;;;;;;11.00;4.72;;;;;;;;;;5073361;28;20092;-52
2023/01/02 12:10:58;;;;;;;10.00;4.78;;;;;;;;;;5072926;28;20080;-53
2023/01/02 12:13:42;;;;;;;10.57;4.72;;;;;;;;;;5072967;28;20053;-52
2023/01/02 12:16:21;;;;;;;10.00;4.95;;;;;;;;;;5072476;28;20466;-50
2023/01/02 12:19:09;;;;;;;12.70;5.70;;;;;;;;;;5072446;28;20052;-51
2023/01/02 12:21:47;;;;;;;15.13;6.82;;;;;;;;;;5072464;28;20075;-49
2023/01/02 12:24:46;;;;;;;15.18;6.20;;;;;;;;;;5072184;28;20080;-50
2023/01/02 12:27:19;;;;;;;12.10;5.65;;;;;;;;;;5075055;28;20123;-50
2023/01/02 12:30:08;;;;;;;11.98;4.75;;;;;;;;;;5075946;28;20089;-50
2023/01/02 12:32:55;;;;;;;9.77;4.20;;;;;;;;;;5073386;28;20049;-50
2023/01/02 12:35:44;;;;;;;12.60;4.40;;;;;;;;;;5072352;28;20056;-50
2023/01/02 12:38:14;;;;;;;8.25;3.80;;;;;;;;;;5066606;28;20485;-58
2023/01/02 12:40:52;;;;;;;8.13;3.70;;;;;;;;;;5073179;28;20084;-54
2023/01/02 12:43:48;;;;;;;9.05;4.18;;;;;;;;;;5086556;28;20059;-49
2023/01/02 12:46:28;;;;;;;9.57;4.45;;;;;;;;;;5071782;28;20044;-50
2023/01/02 12:49:22;;;;;;;12.03;4.07;;;;;;;;;;5069888;28;20083;-51
2023/01/02 12:51:59;;;;;;;10.18;3.92;;;;;;;;;;5072572;28;20053;-48
2023/01/02 12:54:52;;;;;;;7.75;3.80;;;;;;;;;;5071271;28;20575;-52
2023/01/02 12:57:25;;;;;;;9.45;4.10;;;;;;;;;;5072267;28;20098;-51
2023/01/02 13:00:06;;;;;;;14.10;4.60;;;;;;;;;;5069733;28;20044;-50
2023/01/02 13:02:57;;;;;;;8.27;4.15;;;;;;;;;;5051864;28;20084;-51
2023/01/02 13:05:32;;;;;;;8.20;3.83;;;;;;;;;;5065432;28;20048;-50
2023/01/02 13:08:06;;;;;;;10.68;3.50;;;;;;;;;;5072226;28;20505;-51
2023/01/02 13:10:33;;;;;;;9.85;3.00;;;;;;;;;;5070495;28;20443;-50
2023/01/02 13:13:01;;;;;;;8.63;2.97;;;;;;;;;;5051499;28;20095;-49
2023/01/02 13:15:32;;;;;;;8.93;2.70;;;;;;;;;;5059730;28;20056;-50
2023/01/02 13:18:05;;;;;;;7.90;2.63;;;;;;;;;;5071473;28;20113;-51
2023/01/02 13:20:44;;;;;;;7.30;2.80;;;;;;;;;;5071397;28;20091;-49
2023/01/02 13:23:27;;;;;;;9.18;2.85;;;;;;;;;;5060003;28;20044;-50
2023/01/02 13:25:57;;;;;;;9.13;3.13;;;;;;;;;;5070446;28;20083;-49
2023/01/02 13:28:23;;;;;;;8.30;2.92;;;;;;;;;;5071303;28;20125;-51
2023/01/02 13:30:58;;;;;;;12.90;4.05;;;;;;;;;;5070683;28;20136;-51
2023/01/02 13:33:32;;;;;;;11.82;3.10;;;;;;;;;;5071072;28;20083;-49
2023/01/02 13:36:02;;;;;;;5.88;2.42;;;;;;;;;;5071402;28;20075;-48
2023/01/02 13:38:35;;;;;;;7.38;2.92;;;;;;;;;;5071737;28;20076;-51
2023/01/02 13:41:02;;;;;;;9.55;2.75;;;;;;;;;;5071722;28;20404;-49
2023/01/02 13:43:33;;;;;;;9.20;2.90;;;;;;;;;;5072047;28;20053;-50
2023/01/02 13:46:01;;;;;;;10.55;3.47;;;;;;;;;;5071122;28;20044;-50
2023/01/02 13:48:33;;;;;;;8.82;3.63;;;;;;;;;;5071258;28;20517;-50
2023/01/02 13:51:02;;;;;;;6.45;2.95;;;;;;;;;;5071765;28;20148;-50
2023/01/02 13:53:42;;;;;;;8.05;3.28;;;;;;;;;;5071098;28;20048;-50
2023/01/02 13:56:14;;;;;;;7.25;3.30;;;;;;;;;;5071925;28;20056;-53
2023/01/02 13:58:49;;;;;;;7.90;3.15;;;;;;;;;;5071257;28;20460;-52
2023/01/02 14:02:03;;;;;;;10.77;3.22;;;;;;;;;;5070292;28;20508;-51
2023/01/02 14:04:40;;;;;;;10.40;3.42;;;;;;;;;;5069320;28;20486;-52
2023/01/02 14:07:55;;;;;;;8.23;3.38;;;;;;;;;;5070270;28;20056;-49
2023/01/02 14:10:38;;;;;;;15.60;3.90;;;;;;;;;;5058752;28;20080;-49
2023/01/02 14:13:08;;;;;;;8.30;3.10;;;;;;;;;;5069979;28;20176;-51
2023/01/02 14:15:55;;;;;;;9.02;4.05;;;;;;;;;;5071049;28;20458;-49
2023/01/02 14:18:28;;;;;;;10.77;4.68;;;;;;;;;;5067732;28;20391;-53
2023/01/02 14:20:56;;;;;;;10.25;3.55;;;;;;;;;;5070137;28;20054;-52
2023/01/02 14:23:27;;;;;;;11.82;3.45;;;;;;;;;;5069502;28;20132;-51
2023/01/02 14:25:55;;;;;;;8.52;2.72;;;;;;;;;;5070071;28;20413;-50
2023/01/02 14:28:25;;;;;;;6.97;3.10;;;;;;;;;;5070524;28;20387;-50
2023/01/02 14:30:52;;;;;;;11.70;4.22;;;;;;;;;;5070517;28;20097;-50
2023/01/02 14:33:27;;;;;;;7.20;3.13;;;;;;;;;;5069884;28;20041;-49
2023/01/02 14:35:57;;;;;;;10.20;3.50;;;;;;;;;;5070242;28;20052;-50
2023/01/02 14:38:26;;;;;;;11.70;3.65;;;;;;;;;;5070395;28;20522;-51
2023/01/02 14:43:28;;;;;;;8.57;3.33;;;;;;;;;;5070715;28;20102;-52
2023/01/02 14:43:43;;;;;;;12.48;4.00;;;;;;;;;;5069686;28;20051;-49
2023/01/02 14:46:16;;;;;;;10.05;4.30;;;;;;;;;;5070500;28;20459;-51
2023/01/02 14:48:51;;;;;;;6.47;3.63;;;;;;;;;;5070169;28;20052;-49
2023/01/02 14:51:23;;;;;;;6.85;3.25;;;;;;;;;;5070650;28;20052;-52
2023/01/02 14:53:54;;;;;;;7.75;3.53;;;;;;;;;;5070049;28;20080;-50
2023/01/02 14:56:26;;;;;;;6.32;3.78;;;;;;;;;;5070998;28;20522;-51
2023/01/02 14:58:54;;;;;;;12.20;4.00;;;;;;;;;;5070452;28;20089;-51
2023/01/02 15:01:24;;;;;;;11.52;4.25;;;;;;;;;;5070411;28;20235;-51
2023/01/02 15:03:55;;;;;;;11.75;4.70;;;;;;;;;;5069621;28;20056;-50
2023/01/02 15:06:31;;;;;;;10.10;4.88;;;;;;;;;;5050210;28;20059;-50
2023/01/02 15:09:04;;;;;;;9.40;4.32;;;;;;;;;;5065235;28;20057;-51
2023/01/02 15:14:18;;;;;;;17.90;6.35;;;;;;;;;;5071478;22;20049;-79
2023/01/02 15:16:48;;;;;;;12.38;4.53;;;;;;;;;;5032688;28;20050;-79